Aeroporto :
LOGIN :

Iscrizione | Disclaimer

   EN    FR    IT 

 










Sommario :    VFR   VFR Marginale   IFR   IFR Intensivo   IFR Molto Intensivo
Visibilità : 
Base nubi : 
>= 8 km
>= 3000ft
5 / 8 km
1000 / 3000 ft
1500m / 5 km
500 / 1000 ft
800 / 1500m
200 / 500 ft
< 800m
< 200 ft
Simboli :   Temporali  Nebbia  Neve Forte  Precipitazioni Forti  Vento > 20 kt
SIGMETs :   Varie  Temporali  Ghiacco  Turbolenza  Onda orograficha  Ceneri Vulcaniche







- Altitudine del aeroporto : 20 ft


EBFN - Koksijde

ULTIMO METAR :
  • 121455Z 22005KT 9999 FEW018TCU SCT250 04/03 Q1011 BLU BLU

METARs OBSOLETI :
  • 121441Z 22005KT 9999 FEW018TCU SCT250 04/03 Q1011 BLU BLU
  • 121425Z 23005KT 9999 SCT018TCU 04/03 Q1011 WHT WHT TEMPO GRN
  • 121355Z 25007KT 9999 SCT016TCU 04/03 Q1010 WHT WHT TEMPO GRN
  • 121325Z 24007KT 9999 SCT015TCU 05/03 Q1010 WHT WHT TEMPO GRN
  • 121255Z 27008KT 9999 SCT015TCU 05/03 Q1010 WHT WHT TEMPO GRN
  • 121225Z 26010KT 9999 SCT015TCU BKN026 BKN060 06/03 Q1009 WHT WHT TEMPO GRN

TAF TAF EBFN
Valido dal 12 a 13 ore il 12 a 22 ore UTC


121141Z 1213/1222 24010KT 9999 FEW017
BECMG 1218/1220 20015KT 8000 FEW010 SCT024
TEMPO 1221/1222 20015G25KT 5000 -SHRASN
Nessun NOTAM noto per questo aeroporto.



MetMap, La meteo Aeronautica in un colpo d'occhio ! - Copyright ORBIFLY Dicembre 2007 - Disclaimer

ORBIFLY MET'MAP TEAM :

Programmazione e sviluppo : Alexandra Zaïnal
Concezione e sviluppo : Baudouin d'Aumeries
Co-Programmazione e sviluppo : Marc-Olivier Méhu
Supporto tecnico e logistico : Manuel Goepfert
Aiuto per la traduzione : Arnaldo La Scala

Contatto : metmap@orbifly.com




FONTI E CREDITI :

   NOAA